Flight Number: EUR2141 Duration: 1:30
Departure: Munich Int'l (EDDM) at 06:30 Distance: 420 Nm
Arrival: Warsaw Okecie (EPWA) at 08:00 Equipment: CRJ700

Weather Information
Munchen, Germany (EDDM) 48-21N 011-47E Sep 21, 2017 - 09:50 AM EDT / 2017.09.21 1350 UTC
Wind: from the SE (130 degrees) at 5 MPH (4 KT) (direction variable):0
Visibility: greater than 7 mile(s):0
Sky conditions: partly cloudy Temperature: 60 F (16 C) Dew Point: 44 F (7 C) Relative Humidity: 55% Pressure (altimeter): 30.15 in. Hg (1021 hPa)
ob: EDDM 211350Z 13004KT 080V190 9999 FEW040 SCT060 16/07 Q1021 NOSIG cycle: 14
Sunrise: 05:02 Sunset: 17:08 (UTC)

Warszawa-Okecie, Poland (EPWA) 52-10N 020-58E 107M Sep 21, 2017 - 10:00 AM EDT / 2017.09.21 1400 UTC
Wind: from the NNW (340 degrees) at 12 MPH (10 KT):0
Visibility: 3 mile(s):0
Sky conditions: overcast Weather: light drizzle Temperature: 53 F (12 C) Dew Point: 51 F (11 C) Relative Humidity: 93% Pressure (altimeter): 29.91 in. Hg (1013 hPa)
ob: EPWA 211400Z 34010KT 6000 -DZ OVC006 12/11 Q1013 TEMPO 5000 BR cycle: 14
Sunrise: 04:25 Sunset: 16:32 (UTC)

TAF:2017/09/21 12:33 TAF EPWA 211130Z 2112/2212 36012KT 9999 BKN013 TEMPO 2112/2117 -RA BKN007 TEMPO 2117/2208 BKN007 PROB40 TEMPO 2122/2207 3000 BR PROB30 TEMPO 2123/2205 1500 RADZ BR BKN004 BECMG 2200/2203 28004KT

Previous Pireps for this route
Date Aircraft Flight time Fuel used Landing rate On time
2012-11-19MD-8101.279062-364Yes
2012-12-15MD-8101.329598-524Yes
2013-08-23CRJ7001.2985760No
2013-08-25MD-8101.3912481-462Yes
2013-09-17CRJ7001.2158600No
2014-01-03MD-8101.178608-286Yes
2014-01-19MD-8101.4310119-328No
2014-05-28MD-8101.199236-302Yes
2015-04-10CRJ7001.1543170No
2015-04-17CRJ7001.2446110Yes
2015-05-06CRJ7001.1638430Yes
2015-05-10CRJ7001.1041270Yes
2015-05-26CRJ7001.1639120Yes
2015-08-08B73701.165374-193Charter
2016-01-13B73701.3815525-191Charter
2016-05-07CRJ7001.2035380Yes
2016-10-08CRJ7001.1642220Yes
(pireps marked green are flown by you)

Route map